sensor_id;sensor_type;location;lat;lon;timestamp;P1;durP1;ratioP1;P2;durP2;ratioP2
305;SDS011;137;48.578;9.180;2023-01-16T00:01:14;1.33;;;0.80;;
305;SDS011;137;48.578;9.180;2023-01-16T00:03:42;2.90;;;1.10;;
305;SDS011;137;48.578;9.180;2023-01-16T00:06:09;2.03;;;1.43;;
305;SDS011;137;48.578;9.180;2023-01-16T00:08:36;1.53;;;1.13;;
305;SDS011;137;48.578;9.180;2023-01-16T00:11:04;5.30;;;1.60;;
305;SDS011;137;48.578;9.180;2023-01-16T00:13:31;2.07;;;0.93;;
305;SDS011;137;48.578;9.180;2023-01-16T00:15:57;2.40;;;1.00;;
305;SDS011;137;48.578;9.180;2023-01-16T00:18:24;3.23;;;1.10;;
305;SDS011;137;48.578;9.180;2023-01-16T00:20:51;1.70;;;0.70;;
305;SDS011;137;48.578;9.180;2023-01-16T00:23:18;4.80;;;1.73;;
305;SDS011;137;48.578;9.180;2023-01-16T00:25:44;4.77;;;1.03;;
305;SDS011;137;48.578;9.180;2023-01-16T00:28:13;2.00;;;1.20;;
305;SDS011;137;48.578;9.180;2023-01-16T00:30:40;4.40;;;2.10;;
305;SDS011;137;48.578;9.180;2023-01-16T00:33:08;2.43;;;1.03;;
305;SDS011;137;48.578;9.180;2023-01-16T00:35:35;1.77;;;0.80;;
305;SDS011;137;48.578;9.180;2023-01-16T00:38:02;3.53;;;1.00;;
305;SDS011;137;48.578;9.180;2023-01-16T00:40:29;1.60;;;1.20;;
305;SDS011;137;48.578;9.180;2023-01-16T00:42:55;1.37;;;0.90;;
305;SDS011;137;48.578;9.180;2023-01-16T00:45:24;3.00;;;0.80;;
305;SDS011;137;48.578;9.180;2023-01-16T00:47:50;2.10;;;1.40;;
305;SDS011;137;48.578;9.180;2023-01-16T00:50:17;1.27;;;0.77;;
305;SDS011;137;48.578;9.180;2023-01-16T00:52:44;2.07;;;0.93;;
305;SDS011;137;48.578;9.180;2023-01-16T00:55:11;3.17;;;1.03;;
305;SDS011;137;48.578;9.180;2023-01-16T00:57:37;2.13;;;1.10;;
305;SDS011;137;48.578;9.180;2023-01-16T01:00:05;6.53;;;1.23;;
305;SDS011;137;48.578;9.180;2023-01-16T01:02:34;1.30;;;0.80;;
305;SDS011;137;48.578;9.180;2023-01-16T01:05:00;1.67;;;0.90;;
305;SDS011;137;48.578;9.180;2023-01-16T01:07:27;1.60;;;1.20;;
305;SDS011;137;48.578;9.180;2023-01-16T01:09:54;3.67;;;0.90;;
305;SDS011;137;48.578;9.180;2023-01-16T01:12:21;1.17;;;0.70;;
305;SDS011;137;48.578;9.180;2023-01-16T01:14:47;4.40;;;0.90;;
305;SDS011;137;48.578;9.180;2023-01-16T01:17:14;1.03;;;0.70;;
305;SDS011;137;48.578;9.180;2023-01-16T01:19:42;1.90;;;0.97;;
305;SDS011;137;48.578;9.180;2023-01-16T01:22:09;4.10;;;0.80;;
305;SDS011;137;48.578;9.180;2023-01-16T01:24:36;2.23;;;0.70;;
305;SDS011;137;48.578;9.180;2023-01-16T01:27:03;3.53;;;1.00;;
305;SDS011;137;48.578;9.180;2023-01-16T01:29:29;1.00;;;0.70;;
305;SDS011;137;48.578;9.180;2023-01-16T01:31:56;2.43;;;1.13;;
305;SDS011;137;48.578;9.180;2023-01-16T01:34:23;1.37;;;0.77;;
305;SDS011;137;48.578;9.180;2023-01-16T01:36:51;1.23;;;0.73;;
305;SDS011;137;48.578;9.180;2023-01-16T01:39:18;2.87;;;1.10;;
305;SDS011;137;48.578;9.180;2023-01-16T01:41:45;2.30;;;0.87;;
305;SDS011;137;48.578;9.180;2023-01-16T01:47:10;2.13;;;0.70;;
305;SDS011;137;48.578;9.180;2023-01-16T01:49:38;1.83;;;0.80;;
305;SDS011;137;48.578;9.180;2023-01-16T01:52:06;4.60;;;1.10;;
305;SDS011;137;48.578;9.180;2023-01-16T01:54:34;1.37;;;0.83;;
305;SDS011;137;48.578;9.180;2023-01-16T01:57:05;1.37;;;0.80;;
305;SDS011;137;48.578;9.180;2023-01-16T01:59:37;1.30;;;0.90;;
305;SDS011;137;48.578;9.180;2023-01-16T02:02:06;1.50;;;0.90;;
305;SDS011;137;48.578;9.180;2023-01-16T02:04:38;6.47;;;1.37;;
305;SDS011;137;48.578;9.180;2023-01-16T02:07:09;1.90;;;0.80;;
305;SDS011;137;48.578;9.180;2023-01-16T02:09:40;2.27;;;0.87;;
305;SDS011;137;48.578;9.180;2023-01-16T02:12:07;1.47;;;0.73;;
305;SDS011;137;48.578;9.180;2023-01-16T02:14:36;1.40;;;0.80;;
305;SDS011;137;48.578;9.180;2023-01-16T02:17:04;1.80;;;0.80;;
305;SDS011;137;48.578;9.180;2023-01-16T02:19:53;2.20;;;1.07;;
305;SDS011;137;48.578;9.180;2023-01-16T02:25:27;3.10;;;1.00;;
305;SDS011;137;48.578;9.180;2023-01-16T02:28:23;3.53;;;1.00;;
305;SDS011;137;48.578;9.180;2023-01-16T02:31:10;5.30;;;0.80;;
305;SDS011;137;48.578;9.180;2023-01-16T02:33:45;1.20;;;0.60;;
305;SDS011;137;48.578;9.180;2023-01-16T02:36:23;1.63;;;1.00;;
305;SDS011;137;48.578;9.180;2023-01-16T02:39:01;1.67;;;0.83;;
305;SDS011;137;48.578;9.180;2023-01-16T02:41:36;2.23;;;1.00;;
305;SDS011;137;48.578;9.180;2023-01-16T02:44:13;1.60;;;0.70;;
305;SDS011;137;48.578;9.180;2023-01-16T02:46:54;3.10;;;0.80;;
305;SDS011;137;48.578;9.180;2023-01-16T02:49:27;1.50;;;1.07;;
305;SDS011;137;48.578;9.180;2023-01-16T02:52:00;1.13;;;0.87;;
305;SDS011;137;48.578;9.180;2023-01-16T02:54:37;1.43;;;0.80;;
305;SDS011;137;48.578;9.180;2023-01-16T02:57:10;3.13;;;0.87;;
305;SDS011;137;48.578;9.180;2023-01-16T02:59:41;1.10;;;0.90;;
305;SDS011;137;48.578;9.180;2023-01-16T03:02:10;2.93;;;0.90;;
305;SDS011;137;48.578;9.180;2023-01-16T03:04:41;3.70;;;1.13;;
305;SDS011;137;48.578;9.180;2023-01-16T03:07:22;1.30;;;0.93;;
305;SDS011;137;48.578;9.180;2023-01-16T03:10:04;7.67;;;1.40;;
305;SDS011;137;48.578;9.180;2023-01-16T03:12:45;1.23;;;0.80;;
305;SDS011;137;48.578;9.180;2023-01-16T03:15:26;2.67;;;0.73;;
305;SDS011;137;48.578;9.180;2023-01-16T03:18:06;1.30;;;0.90;;
305;SDS011;137;48.578;9.180;2023-01-16T03:20:39;1.87;;;0.70;;
305;SDS011;137;48.578;9.180;2023-01-16T03:23:18;4.27;;;0.90;;
305;SDS011;137;48.578;9.180;2023-01-16T03:25:53;1.33;;;0.80;;
305;SDS011;137;48.578;9.180;2023-01-16T03:28:25;2.17;;;0.80;;
305;SDS011;137;48.578;9.180;2023-01-16T03:31:00;1.00;;;0.70;;
305;SDS011;137;48.578;9.180;2023-01-16T03:33:39;1.70;;;0.80;;
305;SDS011;137;48.578;9.180;2023-01-16T03:36:13;1.50;;;1.07;;
305;SDS011;137;48.578;9.180;2023-01-16T03:38:45;2.20;;;0.87;;
305;SDS011;137;48.578;9.180;2023-01-16T03:41:15;1.70;;;0.80;;
305;SDS011;137;48.578;9.180;2023-01-16T03:43:47;1.20;;;0.80;;
305;SDS011;137;48.578;9.180;2023-01-16T03:46:19;1.00;;;0.70;;
305;SDS011;137;48.578;9.180;2023-01-16T03:48:52;1.90;;;0.90;;
305;SDS011;137;48.578;9.180;2023-01-16T03:51:23;2.27;;;2.07;;
305;SDS011;137;48.578;9.180;2023-01-16T03:53:55;1.17;;;0.80;;
305;SDS011;137;48.578;9.180;2023-01-16T03:56:26;1.63;;;0.80;;
305;SDS011;137;48.578;9.180;2023-01-16T03:58:58;1.30;;;1.00;;
305;SDS011;137;48.578;9.180;2023-01-16T04:01:26;3.57;;;1.00;;
305;SDS011;137;48.578;9.180;2023-01-16T04:04:03;3.47;;;1.00;;
305;SDS011;137;48.578;9.180;2023-01-16T04:06:34;1.10;;;0.80;;
305;SDS011;137;48.578;9.180;2023-01-16T04:09:07;1.40;;;0.83;;
305;SDS011;137;48.578;9.180;2023-01-16T04:11:38;3.40;;;1.20;;
305;SDS011;137;48.578;9.180;2023-01-16T04:14:06;2.27;;;1.27;;
305;SDS011;137;48.578;9.180;2023-01-16T04:16:35;1.40;;;0.77;;
305;SDS011;137;48.578;9.180;2023-01-16T04:19:05;1.43;;;0.80;;
305;SDS011;137;48.578;9.180;2023-01-16T04:21:37;1.50;;;0.90;;
305;SDS011;137;48.578;9.180;2023-01-16T04:24:04;5.83;;;0.70;;
305;SDS011;137;48.578;9.180;2023-01-16T04:26:31;1.00;;;0.80;;
305;SDS011;137;48.578;9.180;2023-01-16T04:28:58;2.03;;;0.93;;
305;SDS011;137;48.578;9.180;2023-01-16T04:31:25;1.20;;;0.80;;
305;SDS011;137;48.578;9.180;2023-01-16T04:33:53;1.50;;;1.40;;
305;SDS011;137;48.578;9.180;2023-01-16T04:36:21;2.33;;;0.80;;
305;SDS011;137;48.578;9.180;2023-01-16T04:38:48;1.50;;;0.90;;
305;SDS011;137;48.578;9.180;2023-01-16T04:41:16;2.10;;;1.10;;
305;SDS011;137;48.578;9.180;2023-01-16T04:44:01;3.33;;;1.20;;
305;SDS011;137;48.578;9.180;2023-01-16T04:46:28;1.37;;;0.83;;
305;SDS011;137;48.578;9.180;2023-01-16T04:48:55;1.40;;;0.90;;
305;SDS011;137;48.578;9.180;2023-01-16T04:51:23;2.23;;;1.00;;
305;SDS011;137;48.578;9.180;2023-01-16T04:53:50;5.20;;;2.43;;
305;SDS011;137;48.578;9.180;2023-01-16T04:56:17;4.07;;;2.70;;
305;SDS011;137;48.578;9.180;2023-01-16T04:58:43;5.40;;;1.37;;
305;SDS011;137;48.578;9.180;2023-01-16T05:01:10;4.03;;;0.80;;
305;SDS011;137;48.578;9.180;2023-01-16T05:03:37;2.67;;;1.90;;
305;SDS011;137;48.578;9.180;2023-01-16T05:06:06;2.10;;;0.87;;
305;SDS011;137;48.578;9.180;2023-01-16T05:08:34;2.43;;;1.13;;
305;SDS011;137;48.578;9.180;2023-01-16T05:11:01;1.37;;;0.70;;
305;SDS011;137;48.578;9.180;2023-01-16T05:13:28;1.80;;;1.07;;
305;SDS011;137;48.578;9.180;2023-01-16T05:15:55;1.97;;;1.27;;
305;SDS011;137;48.578;9.180;2023-01-16T05:18:25;1.53;;;1.27;;
305;SDS011;137;48.578;9.180;2023-01-16T05:20:52;1.20;;;1.00;;
305;SDS011;137;48.578;9.180;2023-01-16T05:23:20;4.83;;;1.13;;
305;SDS011;137;48.578;9.180;2023-01-16T05:25:49;3.00;;;1.00;;
305;SDS011;137;48.578;9.180;2023-01-16T05:28:16;2.53;;;1.10;;
305;SDS011;137;48.578;9.180;2023-01-16T05:30:42;1.53;;;1.10;;
305;SDS011;137;48.578;9.180;2023-01-16T05:33:09;1.87;;;1.33;;
305;SDS011;137;48.578;9.180;2023-01-16T05:35:36;12.43;;;1.50;;
305;SDS011;137;48.578;9.180;2023-01-16T05:38:03;3.57;;;1.37;;
305;SDS011;137;48.578;9.180;2023-01-16T05:40:30;1.73;;;1.10;;
305;SDS011;137;48.578;9.180;2023-01-16T05:42:58;3.00;;;2.20;;
305;SDS011;137;48.578;9.180;2023-01-16T05:45:25;2.13;;;1.40;;
305;SDS011;137;48.578;9.180;2023-01-16T05:47:52;1.67;;;1.20;;
305;SDS011;137;48.578;9.180;2023-01-16T05:50:18;5.03;;;1.10;;
305;SDS011;137;48.578;9.180;2023-01-16T05:52:45;2.27;;;1.60;;
305;SDS011;137;48.578;9.180;2023-01-16T05:55:12;6.00;;;2.10;;
305;SDS011;137;48.578;9.180;2023-01-16T05:57:39;2.00;;;1.60;;
305;SDS011;137;48.578;9.180;2023-01-16T06:00:09;3.20;;;2.30;;
305;SDS011;137;48.578;9.180;2023-01-16T06:02:37;4.73;;;2.50;;
305;SDS011;137;48.578;9.180;2023-01-16T06:05:04;4.67;;;2.37;;
305;SDS011;137;48.578;9.180;2023-01-16T06:07:32;3.53;;;1.97;;
305;SDS011;137;48.578;9.180;2023-01-16T06:09:58;5.10;;;2.03;;
305;SDS011;137;48.578;9.180;2023-01-16T06:12:25;1.70;;;1.33;;
305;SDS011;137;48.578;9.180;2023-01-16T06:14:52;3.30;;;2.23;;
305;SDS011;137;48.578;9.180;2023-01-16T06:17:20;2.80;;;2.27;;
305;SDS011;137;48.578;9.180;2023-01-16T06:19:47;3.10;;;2.77;;
305;SDS011;137;48.578;9.180;2023-01-16T06:22:14;8.17;;;3.77;;
305;SDS011;137;48.578;9.180;2023-01-16T06:24:41;6.10;;;3.07;;
305;SDS011;137;48.578;9.180;2023-01-16T06:27:08;6.70;;;4.13;;
305;SDS011;137;48.578;9.180;2023-01-16T06:29:34;8.80;;;4.27;;
305;SDS011;137;48.578;9.180;2023-01-16T06:32:03;5.87;;;3.53;;
305;SDS011;137;48.578;9.180;2023-01-16T06:34:32;5.30;;;3.13;;
305;SDS011;137;48.578;9.180;2023-01-16T06:36:58;4.13;;;3.70;;
305;SDS011;137;48.578;9.180;2023-01-16T06:39:25;4.30;;;2.77;;
305;SDS011;137;48.578;9.180;2023-01-16T06:41:52;3.97;;;2.00;;
305;SDS011;137;48.578;9.180;2023-01-16T06:44:19;3.00;;;2.00;;
305;SDS011;137;48.578;9.180;2023-01-16T06:46:45;3.70;;;2.20;;
305;SDS011;137;48.578;9.180;2023-01-16T06:49:12;2.70;;;2.30;;
305;SDS011;137;48.578;9.180;2023-01-16T06:51:40;1.93;;;1.20;;
305;SDS011;137;48.578;9.180;2023-01-16T06:54:09;4.80;;;1.37;;
305;SDS011;137;48.578;9.180;2023-01-16T06:56:36;1.30;;;1.10;;
305;SDS011;137;48.578;9.180;2023-01-16T06:59:03;2.13;;;1.70;;
305;SDS011;137;48.578;9.180;2023-01-16T07:01:29;1.47;;;1.10;;
305;SDS011;137;48.578;9.180;2023-01-16T07:03:56;2.47;;;1.60;;
305;SDS011;137;48.578;9.180;2023-01-16T07:06:23;2.50;;;1.43;;
305;SDS011;137;48.578;9.180;2023-01-16T07:08:51;2.63;;;2.43;;
305;SDS011;137;48.578;9.180;2023-01-16T07:11:19;2.63;;;1.80;;
305;SDS011;137;48.578;9.180;2023-01-16T07:13:45;2.60;;;1.63;;
305;SDS011;137;48.578;9.180;2023-01-16T07:16:13;1.73;;;1.40;;
305;SDS011;137;48.578;9.180;2023-01-16T07:18:58;1.90;;;1.20;;
305;SDS011;137;48.578;9.180;2023-01-16T07:21:48;1.60;;;1.30;;
305;SDS011;137;48.578;9.180;2023-01-16T07:24:34;1.47;;;1.20;;
305;SDS011;137;48.578;9.180;2023-01-16T07:27:04;3.93;;;1.67;;
305;SDS011;137;48.578;9.180;2023-01-16T07:29:34;2.13;;;1.50;;
305;SDS011;137;48.578;9.180;2023-01-16T07:32:01;3.10;;;1.50;;
305;SDS011;137;48.578;9.180;2023-01-16T07:34:30;1.67;;;1.33;;
305;SDS011;137;48.578;9.180;2023-01-16T07:36:57;2.78;;;1.50;;
305;SDS011;137;48.578;9.180;2023-01-16T07:39:23;1.60;;;1.27;;
305;SDS011;137;48.578;9.180;2023-01-16T07:41:52;6.80;;;1.37;;
305;SDS011;137;48.578;9.180;2023-01-16T07:44:18;1.87;;;1.63;;
305;SDS011;137;48.578;9.180;2023-01-16T07:46:45;2.53;;;2.03;;
305;SDS011;137;48.578;9.180;2023-01-16T07:49:12;1.67;;;1.10;;
305;SDS011;137;48.578;9.180;2023-01-16T07:51:39;2.60;;;1.40;;
305;SDS011;137;48.578;9.180;2023-01-16T07:54:06;2.03;;;1.60;;
305;SDS011;137;48.578;9.180;2023-01-16T07:56:34;2.30;;;2.10;;
305;SDS011;137;48.578;9.180;2023-01-16T07:59:02;2.17;;;1.97;;
305;SDS011;137;48.578;9.180;2023-01-16T08:01:29;2.10;;;1.67;;
305;SDS011;137;48.578;9.180;2023-01-16T08:03:56;1.73;;;1.40;;
305;SDS011;137;48.578;9.180;2023-01-16T08:06:22;3.03;;;1.17;;
305;SDS011;137;48.578;9.180;2023-01-16T08:08:49;1.80;;;1.13;;
305;SDS011;137;48.578;9.180;2023-01-16T08:11:16;1.80;;;1.17;;
305;SDS011;137;48.578;9.180;2023-01-16T08:13:57;2.00;;;1.20;;
305;SDS011;137;48.578;9.180;2023-01-16T08:16:25;2.30;;;1.47;;
305;SDS011;137;48.578;9.180;2023-01-16T08:18:52;4.37;;;1.40;;
305;SDS011;137;48.578;9.180;2023-01-16T08:21:18;1.20;;;1.10;;
305;SDS011;137;48.578;9.180;2023-01-16T08:23:45;2.60;;;1.10;;
305;SDS011;137;48.578;9.180;2023-01-16T08:26:13;2.37;;;0.93;;
305;SDS011;137;48.578;9.180;2023-01-16T08:28:40;1.60;;;0.73;;
305;SDS011;137;48.578;9.180;2023-01-16T08:31:08;1.83;;;1.10;;
305;SDS011;137;48.578;9.180;2023-01-16T08:33:38;2.67;;;1.10;;
305;SDS011;137;48.578;9.180;2023-01-16T08:36:05;1.40;;;1.00;;
305;SDS011;137;48.578;9.180;2023-01-16T08:38:34;1.77;;;0.80;;
305;SDS011;137;48.578;9.180;2023-01-16T08:41:01;1.27;;;0.77;;
305;SDS011;137;48.578;9.180;2023-01-16T08:43:28;1.13;;;0.97;;
305;SDS011;137;48.578;9.180;2023-01-16T08:46:15;1.33;;;0.80;;
305;SDS011;137;48.578;9.180;2023-01-16T08:49:03;7.10;;;1.07;;
305;SDS011;137;48.578;9.180;2023-01-16T08:51:51;1.63;;;1.00;;
305;SDS011;137;48.578;9.180;2023-01-16T08:54:18;1.50;;;0.80;;
305;SDS011;137;48.578;9.180;2023-01-16T08:56:45;1.30;;;0.97;;
305;SDS011;137;48.578;9.180;2023-01-16T08:59:12;1.20;;;0.90;;
305;SDS011;137;48.578;9.180;2023-01-16T09:01:39;1.03;;;0.90;;
305;SDS011;137;48.578;9.180;2023-01-16T09:04:08;1.50;;;0.90;;
305;SDS011;137;48.578;9.180;2023-01-16T09:06:34;2.90;;;0.93;;
305;SDS011;137;48.578;9.180;2023-01-16T09:09:03;2.37;;;1.10;;
305;SDS011;137;48.578;9.180;2023-01-16T09:11:30;1.67;;;0.70;;
305;SDS011;137;48.578;9.180;2023-01-16T09:14:14;1.23;;;0.80;;
305;SDS011;137;48.578;9.180;2023-01-16T09:16:41;1.33;;;0.90;;
305;SDS011;137;48.578;9.180;2023-01-16T09:19:09;2.33;;;0.90;;
305;SDS011;137;48.578;9.180;2023-01-16T09:21:36;1.00;;;0.77;;
305;SDS011;137;48.578;9.180;2023-01-16T09:24:03;2.23;;;1.03;;
305;SDS011;137;48.578;9.180;2023-01-16T09:26:30;1.10;;;0.87;;
305;SDS011;137;48.578;9.180;2023-01-16T09:28:57;1.43;;;0.93;;
305;SDS011;137;48.578;9.180;2023-01-16T09:31:24;1.20;;;0.93;;
305;SDS011;137;48.578;9.180;2023-01-16T09:33:50;1.33;;;0.97;;
305;SDS011;137;48.578;9.180;2023-01-16T09:36:20;1.10;;;0.80;;
305;SDS011;137;48.578;9.180;2023-01-16T09:38:47;1.20;;;0.70;;
305;SDS011;137;48.578;9.180;2023-01-16T09:41:15;1.47;;;0.90;;
305;SDS011;137;48.578;9.180;2023-01-16T09:44:04;1.00;;;0.70;;
305;SDS011;137;48.578;9.180;2023-01-16T09:46:35;1.90;;;0.90;;
305;SDS011;137;48.578;9.180;2023-01-16T09:49:05;3.20;;;0.80;;
305;SDS011;137;48.578;9.180;2023-01-16T09:51:43;1.20;;;0.80;;
305;SDS011;137;48.578;9.180;2023-01-16T09:54:35;1.17;;;0.80;;
305;SDS011;137;48.578;9.180;2023-01-16T09:57:25;1.00;;;0.70;;
305;SDS011;137;48.578;9.180;2023-01-16T10:00:12;1.77;;;0.90;;
305;SDS011;137;48.578;9.180;2023-01-16T10:02:42;1.13;;;0.80;;
305;SDS011;137;48.578;9.180;2023-01-16T10:05:09;1.10;;;0.80;;
305;SDS011;137;48.578;9.180;2023-01-16T10:07:47;1.83;;;0.80;;
305;SDS011;137;48.578;9.180;2023-01-16T10:10:24;1.40;;;1.00;;
305;SDS011;137;48.578;9.180;2023-01-16T10:13:05;1.50;;;0.90;;
305;SDS011;137;48.578;9.180;2023-01-16T10:15:43;1.30;;;0.90;;
305;SDS011;137;48.578;9.180;2023-01-16T10:18:19;1.10;;;0.60;;
305;SDS011;137;48.578;9.180;2023-01-16T10:20:55;2.13;;;0.87;;
305;SDS011;137;48.578;9.180;2023-01-16T10:23:48;0.97;;;0.73;;
305;SDS011;137;48.578;9.180;2023-01-16T10:26:22;2.50;;;1.00;;
305;SDS011;137;48.578;9.180;2023-01-16T10:28:55;11.40;;;1.00;;
305;SDS011;137;48.578;9.180;2023-01-16T10:31:28;1.70;;;1.40;;
305;SDS011;137;48.578;9.180;2023-01-16T10:34:00;1.60;;;0.80;;
305;SDS011;137;48.578;9.180;2023-01-16T10:36:33;1.37;;;0.70;;
305;SDS011;137;48.578;9.180;2023-01-16T10:39:04;2.83;;;0.87;;
305;SDS011;137;48.578;9.180;2023-01-16T10:41:32;1.80;;;1.00;;
305;SDS011;137;48.578;9.180;2023-01-16T10:44:23;2.37;;;0.80;;
305;SDS011;137;48.578;9.180;2023-01-16T10:47:14;1.20;;;0.77;;
305;SDS011;137;48.578;9.180;2023-01-16T10:50:00;1.57;;;0.97;;
305;SDS011;137;48.578;9.180;2023-01-16T10:52:27;0.90;;;0.50;;
305;SDS011;137;48.578;9.180;2023-01-16T10:54:56;1.03;;;0.60;;
305;SDS011;137;48.578;9.180;2023-01-16T10:57:25;1.30;;;0.70;;
305;SDS011;137;48.578;9.180;2023-01-16T10:59:53;1.20;;;0.70;;
305;SDS011;137;48.578;9.180;2023-01-16T11:02:24;1.10;;;0.67;;
305;SDS011;137;48.578;9.180;2023-01-16T11:04:55;0.90;;;0.60;;
305;SDS011;137;48.578;9.180;2023-01-16T11:07:22;1.70;;;0.53;;
305;SDS011;137;48.578;9.180;2023-01-16T11:09:55;0.90;;;0.53;;
305;SDS011;137;48.578;9.180;2023-01-16T11:12:23;2.80;;;1.00;;
305;SDS011;137;48.578;9.180;2023-01-16T11:15:13;2.17;;;1.10;;
305;SDS011;137;48.578;9.180;2023-01-16T11:18:00;1.57;;;1.00;;
305;SDS011;137;48.578;9.180;2023-01-16T11:20:56;2.30;;;1.17;;
305;SDS011;137;48.578;9.180;2023-01-16T11:23:27;1.20;;;1.00;;
305;SDS011;137;48.578;9.180;2023-01-16T11:26:03;2.10;;;0.77;;
305;SDS011;137;48.578;9.180;2023-01-16T11:28:32;1.20;;;0.70;;
305;SDS011;137;48.578;9.180;2023-01-16T11:31:00;1.00;;;0.60;;
305;SDS011;137;48.578;9.180;2023-01-16T11:33:32;0.90;;;0.60;;
305;SDS011;137;48.578;9.180;2023-01-16T11:36:03;0.90;;;0.60;;
305;SDS011;137;48.578;9.180;2023-01-16T11:38:32;1.77;;;0.90;;
305;SDS011;137;48.578;9.180;2023-01-16T11:41:04;1.00;;;0.60;;
305;SDS011;137;48.578;9.180;2023-01-16T11:43:33;1.00;;;0.60;;
305;SDS011;137;48.578;9.180;2023-01-16T11:46:31;1.10;;;0.73;;
305;SDS011;137;48.578;9.180;2023-01-16T11:49:01;1.13;;;0.80;;
305;SDS011;137;48.578;9.180;2023-01-16T11:51:30;1.00;;;0.80;;
305;SDS011;137;48.578;9.180;2023-01-16T11:53:58;1.00;;;0.67;;
305;SDS011;137;48.578;9.180;2023-01-16T11:56:41;1.00;;;0.60;;
305;SDS011;137;48.578;9.180;2023-01-16T11:59:19;1.10;;;0.70;;
305;SDS011;137;48.578;9.180;2023-01-16T12:01:58;0.90;;;0.67;;
305;SDS011;137;48.578;9.180;2023-01-16T12:04:54;1.53;;;0.90;;
305;SDS011;137;48.578;9.180;2023-01-16T12:07:49;1.33;;;0.67;;
305;SDS011;137;48.578;9.180;2023-01-16T12:10:31;0.97;;;0.63;;
305;SDS011;137;48.578;9.180;2023-01-16T12:13:06;2.77;;;1.43;;
305;SDS011;137;48.578;9.180;2023-01-16T12:15:59;1.83;;;1.00;;
305;SDS011;137;48.578;9.180;2023-01-16T12:18:39;1.63;;;0.87;;
305;SDS011;137;48.578;9.180;2023-01-16T12:21:24;1.30;;;0.90;;
305;SDS011;137;48.578;9.180;2023-01-16T12:26:55;1.20;;;0.87;;
305;SDS011;137;48.578;9.180;2023-01-16T12:29:39;1.80;;;1.00;;
305;SDS011;137;48.578;9.180;2023-01-16T12:32:25;2.27;;;1.77;;
305;SDS011;137;48.578;9.180;2023-01-16T12:35:10;1.43;;;0.97;;
305;SDS011;137;48.578;9.180;2023-01-16T12:40:42;1.20;;;0.80;;
305;SDS011;137;48.578;9.180;2023-01-16T12:43:43;1.30;;;0.80;;
305;SDS011;137;48.578;9.180;2023-01-16T12:46:22;1.00;;;0.70;;
305;SDS011;137;48.578;9.180;2023-01-16T12:48:58;2.37;;;0.90;;
305;SDS011;137;48.578;9.180;2023-01-16T12:51:43;1.40;;;0.80;;
305;SDS011;137;48.578;9.180;2023-01-16T12:54:37;1.20;;;0.70;;
305;SDS011;137;48.578;9.180;2023-01-16T12:57:23;1.13;;;0.80;;
305;SDS011;137;48.578;9.180;2023-01-16T13:00:09;2.67;;;0.70;;
305;SDS011;137;48.578;9.180;2023-01-16T13:02:41;1.67;;;0.80;;
305;SDS011;137;48.578;9.180;2023-01-16T13:05:12;0.90;;;0.60;;
305;SDS011;137;48.578;9.180;2023-01-16T13:07:44;1.03;;;0.80;;
305;SDS011;137;48.578;9.180;2023-01-16T13:10:19;1.00;;;0.60;;
305;SDS011;137;48.578;9.180;2023-01-16T13:13:08;1.10;;;0.70;;
305;SDS011;137;48.578;9.180;2023-01-16T13:15:54;1.10;;;0.70;;
305;SDS011;137;48.578;9.180;2023-01-16T13:18:28;1.10;;;0.70;;
305;SDS011;137;48.578;9.180;2023-01-16T13:20:59;1.30;;;0.80;;
305;SDS011;137;48.578;9.180;2023-01-16T13:23:31;1.10;;;0.70;;
305;SDS011;137;48.578;9.180;2023-01-16T13:26:05;0.90;;;0.60;;
305;SDS011;137;48.578;9.180;2023-01-16T13:28:37;1.43;;;0.73;;
305;SDS011;137;48.578;9.180;2023-01-16T13:31:12;1.40;;;0.90;;
305;SDS011;137;48.578;9.180;2023-01-16T13:33:47;0.90;;;0.60;;
305;SDS011;137;48.578;9.180;2023-01-16T13:42:33;1.13;;;0.70;;
305;SDS011;137;48.578;9.180;2023-01-16T13:45:05;1.10;;;0.60;;
305;SDS011;137;48.578;9.180;2023-01-16T13:47:59;1.33;;;0.80;;
305;SDS011;137;48.578;9.180;2023-01-16T13:50:29;1.90;;;1.03;;
305;SDS011;137;48.578;9.180;2023-01-16T13:52:59;1.53;;;0.90;;
305;SDS011;137;48.578;9.180;2023-01-16T13:55:29;2.50;;;1.47;;
305;SDS011;137;48.578;9.180;2023-01-16T13:58:06;1.00;;;0.63;;
305;SDS011;137;48.578;9.180;2023-01-16T14:00:35;1.63;;;1.00;;
305;SDS011;137;48.578;9.180;2023-01-16T14:03:17;1.77;;;1.00;;
305;SDS011;137;48.578;9.180;2023-01-16T14:05:48;1.27;;;0.87;;
305;SDS011;137;48.578;9.180;2023-01-16T14:08:18;1.13;;;0.77;;
305;SDS011;137;48.578;9.180;2023-01-16T14:14:19;1.50;;;1.00;;
305;SDS011;137;48.578;9.180;2023-01-16T14:17:19;1.10;;;0.80;;
305;SDS011;137;48.578;9.180;2023-01-16T14:19:52;1.30;;;1.10;;
305;SDS011;137;48.578;9.180;2023-01-16T14:22:22;1.83;;;1.00;;
305;SDS011;137;48.578;9.180;2023-01-16T14:25:16;1.20;;;0.80;;
305;SDS011;137;48.578;9.180;2023-01-16T14:27:47;1.13;;;0.80;;
305;SDS011;137;48.578;9.180;2023-01-16T14:30:17;2.17;;;1.40;;
305;SDS011;137;48.578;9.180;2023-01-16T14:32:46;1.40;;;0.90;;
305;SDS011;137;48.578;9.180;2023-01-16T14:35:17;1.30;;;1.07;;
305;SDS011;137;48.578;9.180;2023-01-16T14:37:53;1.63;;;1.00;;
305;SDS011;137;48.578;9.180;2023-01-16T14:40:24;1.20;;;0.90;;
305;SDS011;137;48.578;9.180;2023-01-16T14:43:07;1.10;;;0.90;;
305;SDS011;137;48.578;9.180;2023-01-16T14:48:58;1.60;;;1.07;;
305;SDS011;137;48.578;9.180;2023-01-16T14:52:09;1.40;;;0.90;;
305;SDS011;137;48.578;9.180;2023-01-16T14:54:56;1.47;;;0.80;;
305;SDS011;137;48.578;9.180;2023-01-16T14:57:41;2.00;;;1.00;;
305;SDS011;137;48.578;9.180;2023-01-16T15:00:09;1.10;;;0.80;;
305;SDS011;137;48.578;9.180;2023-01-16T15:02:43;0.90;;;0.60;;
305;SDS011;137;48.578;9.180;2023-01-16T15:05:13;0.97;;;0.70;;
305;SDS011;137;48.578;9.180;2023-01-16T15:07:47;1.10;;;0.70;;
305;SDS011;137;48.578;9.180;2023-01-16T15:10:17;1.30;;;0.83;;
305;SDS011;137;48.578;9.180;2023-01-16T15:12:48;1.07;;;0.73;;
305;SDS011;137;48.578;9.180;2023-01-16T15:15:19;1.10;;;0.80;;
305;SDS011;137;48.578;9.180;2023-01-16T15:17:48;2.40;;;0.83;;
305;SDS011;137;48.578;9.180;2023-01-16T15:20:34;2.17;;;1.70;;
305;SDS011;137;48.578;9.180;2023-01-16T15:23:26;2.67;;;1.80;;
305;SDS011;137;48.578;9.180;2023-01-16T15:28:54;1.70;;;1.20;;
305;SDS011;137;48.578;9.180;2023-01-16T15:31:34;2.97;;;1.40;;
305;SDS011;137;48.578;9.180;2023-01-16T15:34:05;1.40;;;1.13;;
305;SDS011;137;48.578;9.180;2023-01-16T15:36:44;1.10;;;0.90;;
305;SDS011;137;48.578;9.180;2023-01-16T15:39:20;2.50;;;0.90;;
305;SDS011;137;48.578;9.180;2023-01-16T15:41:50;2.07;;;1.07;;
305;SDS011;137;48.578;9.180;2023-01-16T15:44:38;1.83;;;1.40;;
305;SDS011;137;48.578;9.180;2023-01-16T15:47:31;1.03;;;0.70;;
305;SDS011;137;48.578;9.180;2023-01-16T15:50:25;1.20;;;0.73;;
305;SDS011;137;48.578;9.180;2023-01-16T15:53:06;1.37;;;1.00;;
305;SDS011;137;48.578;9.180;2023-01-16T15:55:37;1.20;;;0.93;;
305;SDS011;137;48.578;9.180;2023-01-16T15:58:05;1.10;;;0.97;;
305;SDS011;137;48.578;9.180;2023-01-16T16:00:40;2.37;;;1.00;;
305;SDS011;137;48.578;9.180;2023-01-16T16:03:10;2.50;;;2.20;;
305;SDS011;137;48.578;9.180;2023-01-16T16:05:39;1.73;;;1.23;;
305;SDS011;137;48.578;9.180;2023-01-16T16:08:10;1.40;;;1.20;;
305;SDS011;137;48.578;9.180;2023-01-16T16:10:43;2.20;;;1.53;;
305;SDS011;137;48.578;9.180;2023-01-16T16:13:28;3.47;;;2.30;;
305;SDS011;137;48.578;9.180;2023-01-16T16:15:56;4.00;;;2.20;;
305;SDS011;137;48.578;9.180;2023-01-16T16:18:52;4.67;;;2.00;;
305;SDS011;137;48.578;9.180;2023-01-16T16:21:20;2.23;;;1.73;;
305;SDS011;137;48.578;9.180;2023-01-16T16:23:56;3.30;;;1.90;;
305;SDS011;137;48.578;9.180;2023-01-16T16:26:28;9.10;;;6.53;;
305;SDS011;137;48.578;9.180;2023-01-16T16:28:59;2.63;;;1.50;;
305;SDS011;137;48.578;9.180;2023-01-16T16:31:27;3.53;;;2.10;;
305;SDS011;137;48.578;9.180;2023-01-16T16:33:56;1.40;;;1.23;;
305;SDS011;137;48.578;9.180;2023-01-16T16:36:27;1.70;;;1.50;;
305;SDS011;137;48.578;9.180;2023-01-16T16:38:54;2.03;;;1.83;;
305;SDS011;137;48.578;9.180;2023-01-16T16:44:37;1.87;;;1.20;;
305;SDS011;137;48.578;9.180;2023-01-16T16:47:13;1.50;;;0.90;;
305;SDS011;137;48.578;9.180;2023-01-16T16:49:58;2.53;;;1.33;;